createdAt,value
2018-10-05T00:00:03.951Z,100981.27
2018-10-05T00:02:32.650Z,100978.25
2018-10-05T00:05:01.266Z,100980.23
2018-10-05T00:07:30.404Z,100976.72
2018-10-05T00:09:58.983Z,100977.86
2018-10-05T00:12:27.598Z,100975.90
2018-10-05T00:14:56.546Z,100977.02
2018-10-05T00:17:25.802Z,100984.14
2018-10-05T00:19:54.541Z,100981.31
2018-10-05T00:22:23.495Z,100974.33
2018-10-05T00:24:52.253Z,100973.88
2018-10-05T00:27:21.077Z,100973.92
2018-10-05T00:29:50.138Z,100975.39
2018-10-05T00:32:18.961Z,100971.91
2018-10-05T00:34:48.026Z,100971.59
2018-10-05T00:37:17.103Z,100969.60
2018-10-05T00:39:46.950Z,100965.62
2018-10-05T00:42:16.177Z,100964.28
2018-10-05T00:44:44.824Z,100969.43
2018-10-05T00:47:13.383Z,100972.13
2018-10-05T00:49:41.970Z,100968.27
2018-10-05T00:52:10.609Z,100966.63
2018-10-05T00:54:39.208Z,100958.95
2018-10-05T00:57:09.900Z,100955.30
2018-10-05T00:59:38.639Z,100954.98
2018-10-05T01:02:07.590Z,100955.61
2018-10-05T01:04:36.658Z,100954.77
2018-10-05T01:07:05.216Z,100954.75
2018-10-05T01:09:33.786Z,100959.08
2018-10-05T01:12:02.725Z,100955.28
2018-10-05T01:14:31.284Z,100950.97
2018-10-05T01:16:59.919Z,100950.62
2018-10-05T01:19:28.626Z,100954.97
2018-10-05T01:21:57.399Z,100950.48
2018-10-05T01:24:25.967Z,100951.98
2018-10-05T01:26:54.669Z,100951.14
2018-10-05T01:29:23.281Z,100955.63
2018-10-05T01:31:51.923Z,100951.29
2018-10-05T01:34:20.504Z,100959.60
2018-10-05T01:36:49.152Z,100955.30
2018-10-05T01:39:18.728Z,100956.59
2018-10-05T01:41:47.712Z,100947.97
2018-10-05T01:44:16.808Z,100952.98
2018-10-05T01:46:45.761Z,100954.47
2018-10-05T01:49:14.394Z,100950.98
2018-10-05T01:51:43.103Z,100950.16
2018-10-05T01:54:11.794Z,100955.80
2018-10-05T01:56:40.453Z,100954.30
2018-10-05T01:59:09.235Z,100950.47
2018-10-05T02:01:37.856Z,100951.45
2018-10-05T02:04:06.646Z,100961.06
2018-10-05T02:06:35.394Z,100965.83
2018-10-05T02:09:05.033Z,100966.59
2018-10-05T02:11:33.679Z,100961.41
2018-10-05T02:14:02.228Z,100962.36
2018-10-05T02:16:31.474Z,100960.62
2018-10-05T02:19:00.247Z,100962.55
2018-10-05T02:21:28.899Z,100955.19
2018-10-05T02:23:57.482Z,100956.30
2018-10-05T02:26:26.021Z,100956.13
2018-10-05T02:28:54.598Z,100951.09
2018-10-05T02:31:23.160Z,100943.42
2018-10-05T02:33:51.798Z,100940.49
2018-10-05T02:36:20.496Z,100946.03
2018-10-05T02:38:49.113Z,100940.66
2018-10-05T02:41:17.733Z,100934.84
2018-10-05T02:43:46.301Z,100936.17
2018-10-05T02:46:14.860Z,100932.62
2018-10-05T02:48:43.499Z,100928.52
2018-10-05T02:51:12.189Z,100923.33
2018-10-05T02:53:40.838Z,100928.09
2018-10-05T02:56:09.481Z,100931.08
2018-10-05T02:58:38.042Z,100928.82
2018-10-05T03:01:18.063Z,100929.09
2018-10-05T03:03:46.709Z,100924.55
2018-10-05T03:06:15.304Z,100916.86
2018-10-05T03:08:43.882Z,100912.59
2018-10-05T03:11:12.948Z,100917.64
2018-10-05T03:13:41.558Z,100925.00
2018-10-05T03:16:10.649Z,100929.98
2018-10-05T03:18:39.230Z,100930.09
2018-10-05T03:21:08.286Z,100932.80
2018-10-05T03:23:36.968Z,100940.32
2018-10-05T03:26:05.552Z,100927.27
2018-10-05T03:28:34.106Z,100929.02
2018-10-05T03:31:02.725Z,100924.41
2018-10-05T03:33:31.490Z,100918.44
2018-10-05T03:36:00.159Z,100921.93
2018-10-05T03:38:28.710Z,100923.12
2018-10-05T03:40:57.255Z,100927.69
2018-10-05T03:43:25.807Z,100918.60
2018-10-05T03:45:54.392Z,100913.70
2018-10-05T03:48:23.083Z,100908.75
2018-10-05T03:50:51.690Z,100908.91
2018-10-05T03:53:20.230Z,100911.41
2018-10-05T03:55:48.863Z,100909.05
2018-10-05T03:58:17.407Z,100905.06
2018-10-05T04:00:46.057Z,100908.18
2018-10-05T04:03:14.788Z,100908.94
2018-10-05T04:05:43.550Z,100908.73
2018-10-05T04:08:12.254Z,100909.84
2018-10-05T04:10:40.850Z,100911.75
2018-10-05T04:13:09.449Z,100909.27
2018-10-05T04:15:38.002Z,100904.11
2018-10-05T04:18:06.670Z,100902.25
2018-10-05T04:20:35.332Z,100898.10
2018-10-05T04:23:04.016Z,100897.34
2018-10-05T04:25:32.756Z,100905.92
2018-10-05T04:28:01.303Z,100909.45
2018-10-05T04:30:29.867Z,100915.47
2018-10-05T04:32:58.469Z,100907.17
2018-10-05T04:35:27.061Z,100903.80
2018-10-05T04:37:55.929Z,100910.39
2018-10-05T04:40:24.697Z,100905.23
2018-10-05T04:42:53.286Z,100907.05
2018-10-05T04:45:21.909Z,100909.05
2018-10-05T04:47:50.499Z,100909.41
2018-10-05T04:50:19.115Z,100908.72
2018-10-05T04:52:47.689Z,100909.31
2018-10-05T04:55:16.425Z,100909.97
2018-10-05T04:57:45.139Z,100915.53
2018-10-05T05:00:13.896Z,100916.77
2018-10-05T05:02:42.497Z,100913.78
2018-10-05T05:05:11.046Z,100923.09
2018-10-05T05:07:39.647Z,100924.91
2018-10-05T05:10:08.215Z,100922.84
2018-10-05T05:12:36.822Z,100930.63
2018-10-05T05:15:06.218Z,100932.11
2018-10-05T05:17:34.815Z,100935.44
2018-10-05T05:20:03.387Z,100930.35
2018-10-05T05:22:31.958Z,100931.39
2018-10-05T05:25:00.526Z,100929.44
2018-10-05T05:27:29.138Z,100934.92
2018-10-05T05:29:57.818Z,100930.53
2018-10-05T05:32:26.415Z,100930.44
2018-10-05T05:34:55.078Z,100931.22
2018-10-05T05:37:23.851Z,100931.33
2018-10-05T05:39:52.466Z,100933.02
2018-10-05T05:42:21.015Z,100938.72
2018-10-05T05:44:49.591Z,100939.78
2018-10-05T05:47:18.994Z,100941.76
2018-10-05T05:49:48.007Z,100945.55
2018-10-05T05:52:16.841Z,100954.83
2018-10-05T05:54:45.475Z,100940.06
2018-10-05T05:57:14.142Z,100945.27
2018-10-05T05:59:42.699Z,100953.14
2018-10-05T06:02:11.264Z,100951.64
2018-10-05T06:04:39.874Z,100947.80
2018-10-05T06:07:08.598Z,100944.77
2018-10-05T06:09:37.374Z,100941.56
2018-10-05T06:12:05.959Z,100938.80
2018-10-05T06:14:36.602Z,100942.91
2018-10-05T06:17:05.268Z,100942.42
2018-10-05T06:19:33.862Z,100943.46
2018-10-05T06:22:02.702Z,100948.48
2018-10-05T06:24:31.327Z,100941.45
2018-10-05T06:26:59.886Z,100943.94
2018-10-05T06:29:28.670Z,100946.70
2018-10-05T06:31:57.317Z,100947.25
2018-10-05T06:34:25.960Z,100950.75
2018-10-05T06:36:54.570Z,100949.77
2018-10-05T06:39:23.186Z,100956.11
2018-10-05T06:41:51.800Z,100952.41
2018-10-05T06:44:20.373Z,100950.62
2018-10-05T06:46:49.085Z,100955.36
2018-10-05T06:49:18.100Z,100955.30
2018-10-05T06:51:47.391Z,100953.38
2018-10-05T06:54:16.014Z,100952.11
2018-10-05T06:56:44.554Z,100952.27
2018-10-05T06:59:13.110Z,100953.59
2018-10-05T07:01:41.707Z,100945.30
2018-10-05T07:04:10.440Z,100954.00
2018-10-05T07:06:39.049Z,100962.61
2018-10-05T07:09:08.199Z,100958.31
2018-10-05T07:11:37.175Z,100954.35
2018-10-05T07:14:05.974Z,100954.34
2018-10-05T07:16:34.555Z,100951.17
2018-10-05T07:19:03.166Z,100951.07
2018-10-05T07:21:32.599Z,100950.23
2018-10-05T07:24:01.268Z,100948.88
2018-10-05T07:26:30.756Z,100951.31
2018-10-05T07:29:00.055Z,100946.14
2018-10-05T07:31:28.697Z,100941.38
2018-10-05T07:33:57.270Z,100945.13
2018-10-05T07:36:25.834Z,100939.77
2018-10-05T07:38:54.401Z,100946.70
2018-10-05T07:41:22.986Z,100939.30
2018-10-05T07:43:51.610Z,100937.97
2018-10-05T07:46:20.301Z,100941.52
2018-10-05T07:48:48.978Z,100941.23
2018-10-05T07:51:17.673Z,100940.81
2018-10-05T07:53:46.874Z,100944.43
2018-10-05T07:56:15.665Z,100938.52
2018-10-05T07:58:44.284Z,100935.31
2018-10-05T08:01:12.928Z,100933.23
2018-10-05T08:03:42.193Z,100934.53
2018-10-05T08:06:10.966Z,100931.44
2018-10-05T08:08:39.656Z,100927.25
2018-10-05T08:11:08.947Z,100929.00
2018-10-05T08:13:37.851Z,100926.25
2018-10-05T08:16:06.585Z,100928.37
2018-10-05T08:18:35.337Z,100924.30
2018-10-05T08:21:03.991Z,100932.42
2018-10-05T08:23:33.265Z,100929.31
2018-10-05T08:26:02.461Z,100923.78
2018-10-05T08:28:31.111Z,100919.52
2018-10-05T08:30:59.859Z,100919.50
2018-10-05T08:33:28.931Z,100918.50
2018-10-05T08:35:57.465Z,100917.66
2018-10-05T08:38:26.250Z,100922.22
2018-10-05T08:40:54.914Z,100919.05
2018-10-05T08:43:25.251Z,100916.95
2018-10-05T08:45:54.004Z,100914.66
2018-10-05T08:48:22.936Z,100913.84
2018-10-05T08:50:51.855Z,100907.72
2018-10-05T08:53:21.079Z,100902.05
2018-10-05T08:55:50.006Z,100898.41
2018-10-05T08:58:18.655Z,100900.63
2018-10-05T09:00:47.283Z,100892.27
2018-10-05T09:03:15.938Z,100897.11
2018-10-05T09:05:44.733Z,100890.48
2018-10-05T09:08:13.703Z,100893.67
2018-10-05T09:10:43.033Z,100892.09
2018-10-05T09:13:11.806Z,100893.56
2018-10-05T09:15:40.366Z,100886.86
2018-10-05T09:18:08.987Z,100885.97
2018-10-05T09:20:37.684Z,100890.73
2018-10-05T09:23:06.278Z,100871.51
2018-10-05T09:25:34.835Z,100877.93
2018-10-05T09:28:03.535Z,100878.59
2018-10-05T09:30:32.285Z,100873.91
2018-10-05T09:33:01.006Z,100868.59
2018-10-05T09:35:29.573Z,100865.48
2018-10-05T09:37:58.167Z,100863.01
2018-10-05T09:40:26.928Z,100867.87
2018-10-05T09:42:55.490Z,100861.52
2018-10-05T09:45:24.165Z,100859.86
2018-10-05T09:47:52.929Z,100850.84
2018-10-05T09:50:21.598Z,100857.66
2018-10-05T09:52:50.321Z,100857.70
2018-10-05T09:55:18.965Z,100851.98
2018-10-05T09:57:57.093Z,100854.58
2018-10-05T10:00:31.130Z,100852.16
2018-10-05T10:03:01.210Z,100845.52
2018-10-05T10:05:29.757Z,100843.48
2018-10-05T10:07:58.371Z,100834.34
2018-10-05T10:10:27.061Z,100834.94
2018-10-05T10:12:55.743Z,100826.97
2018-10-05T10:15:24.464Z,100827.05
2018-10-05T10:17:53.083Z,100819.41
2018-10-05T10:20:21.642Z,100811.38
2018-10-05T10:22:50.249Z,100814.34
2018-10-05T10:25:18.969Z,100804.11
2018-10-05T10:27:47.686Z,100802.33
2018-10-05T10:30:16.439Z,100794.52
2018-10-05T10:32:45.310Z,100792.23
2018-10-05T10:35:13.886Z,100791.84
2018-10-05T10:37:42.762Z,100782.23
2018-10-05T10:40:11.359Z,100779.90
2018-10-05T10:42:39.979Z,100784.06
2018-10-05T10:45:09.287Z,100774.60
2018-10-05T10:47:37.862Z,100766.72
2018-10-05T10:50:06.611Z,100764.38
2018-10-05T10:52:35.477Z,100770.97
2018-10-05T10:55:04.173Z,100764.78
2018-10-05T10:57:33.037Z,100756.39
2018-10-05T11:00:01.630Z,100756.73
2018-10-05T11:02:30.200Z,100747.78
2018-10-05T11:04:58.840Z,100754.14
2018-10-05T11:07:27.638Z,100746.80
2018-10-05T11:09:56.342Z,100752.83
2018-10-05T11:12:25.014Z,100748.64
2018-10-05T11:14:53.590Z,100739.05
2018-10-05T11:17:22.184Z,100736.44
2018-10-05T11:19:50.765Z,100740.88
2018-10-05T11:22:19.348Z,100733.53
2018-10-05T11:24:47.992Z,100731.66
2018-10-05T11:27:16.669Z,100718.23
2018-10-05T11:29:45.385Z,100718.55
2018-10-05T11:32:14.101Z,100719.81
2018-10-05T11:34:42.673Z,100716.91
2018-10-05T11:37:11.257Z,100719.44
2018-10-05T11:39:39.845Z,100714.94
2018-10-05T11:42:09.323Z,100710.30
2018-10-05T11:44:37.985Z,100718.24
2018-10-05T11:47:06.587Z,100698.09
2018-10-05T11:49:35.153Z,100707.33
2018-10-05T11:52:03.727Z,100699.70
2018-10-05T11:54:32.316Z,100700.05
2018-10-05T11:57:00.929Z,100694.34
2018-10-05T11:59:29.714Z,100697.02
2018-10-05T12:01:58.750Z,100694.87
2018-10-05T12:04:27.382Z,100686.91
2018-10-05T12:06:56.134Z,100690.28
2018-10-05T12:09:24.753Z,100682.52
2018-10-05T12:11:53.381Z,100678.77
2018-10-05T12:14:22.010Z,100678.77
2018-10-05T12:16:50.617Z,100687.19
2018-10-05T12:19:19.379Z,100675.87
2018-10-05T12:21:48.169Z,100675.33
2018-10-05T12:24:16.764Z,100670.44
2018-10-05T12:26:45.369Z,100677.78
2018-10-05T12:29:14.133Z,100675.30
2018-10-05T12:31:42.794Z,100676.81
2018-10-05T12:34:11.399Z,100671.11
2018-10-05T12:36:40.137Z,100669.50
2018-10-05T12:39:09.397Z,100669.78
2018-10-05T12:41:38.465Z,100663.64
2018-10-05T12:44:07.678Z,100662.48
2018-10-05T12:46:36.733Z,100655.38
2018-10-05T12:49:05.583Z,100650.56
2018-10-05T12:51:34.284Z,100650.69
2018-10-05T12:54:02.985Z,100654.56
2018-10-05T12:56:31.733Z,100647.78
2018-10-05T12:59:00.455Z,100643.23
2018-10-05T13:01:29.079Z,100642.25
2018-10-05T13:03:57.908Z,100642.28
2018-10-05T13:06:26.555Z,100640.36
2018-10-05T13:08:55.231Z,100639.56
2018-10-05T13:11:23.863Z,100636.83
2018-10-05T13:13:52.469Z,100631.55
2018-10-05T13:16:21.197Z,100632.53
2018-10-05T13:18:49.850Z,100631.17
2018-10-05T13:21:18.595Z,100635.86
2018-10-05T13:23:47.247Z,100630.75
2018-10-05T13:26:15.861Z,100623.19
2018-10-05T13:28:44.555Z,100624.77
2018-10-05T13:31:13.351Z,100621.48
2018-10-05T13:33:42.189Z,100617.20
2018-10-05T13:36:10.932Z,100616.89
2018-10-05T13:38:39.658Z,100615.41
2018-10-05T13:41:08.267Z,100609.87
2018-10-05T13:43:36.843Z,100605.23
2018-10-05T13:46:05.682Z,100615.02
2018-10-05T13:48:34.370Z,100601.77
2018-10-05T13:51:03.014Z,100595.27
2018-10-05T13:53:31.731Z,100597.98
2018-10-05T13:56:00.405Z,100599.15
2018-10-05T13:58:28.989Z,100591.55
2018-10-05T14:00:57.583Z,100587.96
2018-10-05T14:03:26.174Z,100586.30
2018-10-05T14:05:54.800Z,100585.78
2018-10-05T14:08:23.421Z,100582.52
2018-10-05T14:10:52.198Z,100580.62
2018-10-05T14:13:20.965Z,100580.59
2018-10-05T14:15:49.641Z,100574.07
2018-10-05T14:18:18.233Z,100572.09
2018-10-05T14:20:46.814Z,100569.91
2018-10-05T14:23:15.441Z,100562.30
2018-10-05T14:25:44.090Z,100565.26
2018-10-05T14:28:12.913Z,100557.60
2018-10-05T14:30:41.610Z,100569.23
2018-10-05T14:33:10.270Z,100562.62
2018-10-05T14:35:38.873Z,100556.60
2018-10-05T14:38:07.898Z,100557.67
2018-10-05T14:40:36.765Z,100554.69
2018-10-05T14:43:05.366Z,100552.73
2018-10-05T14:45:35.294Z,100541.89
2018-10-05T14:48:04.390Z,100549.73
2018-10-05T14:50:33.314Z,100536.07
2018-10-05T14:53:02.747Z,100529.96
2018-10-05T14:55:31.468Z,100523.98
2018-10-05T14:58:00.174Z,100525.88
2018-10-05T15:00:28.792Z,100525.55
2018-10-05T15:02:57.429Z,100514.16
2018-10-05T15:05:26.576Z,100507.86
2018-10-05T15:07:55.335Z,100514.03
2018-10-05T15:10:24.634Z,100507.70
2018-10-05T15:12:54.149Z,100510.66
2018-10-05T15:15:23.286Z,100507.31
2018-10-05T15:17:52.090Z,100497.49
2018-10-05T15:20:20.746Z,100495.22
2018-10-05T15:22:49.566Z,100495.72
2018-10-05T15:25:18.736Z,100492.13
2018-10-05T15:27:47.383Z,100494.55
2018-10-05T15:30:15.985Z,100494.27
2018-10-05T15:32:44.866Z,100483.05
2018-10-05T15:35:13.840Z,100486.77
2018-10-05T15:37:42.497Z,100482.20
2018-10-05T15:40:11.173Z,100467.97
2018-10-05T15:42:39.973Z,100479.04
2018-10-05T15:45:08.768Z,100482.81
2018-10-05T15:47:37.349Z,100479.50
2018-10-05T15:50:06.809Z,100482.34
2018-10-05T15:52:42.399Z,100483.27
2018-10-05T15:55:10.985Z,100479.88
2018-10-05T15:57:39.970Z,100480.04
2018-10-05T16:00:08.698Z,100477.47
2018-10-05T16:02:37.646Z,100470.55
2018-10-05T16:05:07.195Z,100466.75
2018-10-05T16:07:36.354Z,100465.80
2018-10-05T16:10:05.732Z,100464.00
2018-10-05T16:12:34.450Z,100463.02
2018-10-05T16:15:03.322Z,100462.91
2018-10-05T16:17:32.386Z,100459.78
2018-10-05T16:20:01.146Z,100458.88
2018-10-05T16:22:29.817Z,100458.30
2018-10-05T16:24:58.781Z,100451.13
2018-10-05T16:27:27.793Z,100446.32
2018-10-05T16:29:56.581Z,100447.03
2018-10-05T16:32:25.266Z,100452.92
2018-10-05T16:34:53.867Z,100455.09
2018-10-05T16:37:22.507Z,100449.21
2018-10-05T16:39:51.121Z,100438.12
2018-10-05T16:42:19.769Z,100443.08
2018-10-05T16:44:48.339Z,100445.66
2018-10-05T16:47:17.152Z,100448.06
2018-10-05T16:49:45.897Z,100447.03
2018-10-05T16:52:14.724Z,100443.80
2018-10-05T16:54:43.528Z,100437.30
2018-10-05T16:57:12.162Z,100447.20
2018-10-05T16:59:41.060Z,100446.16
2018-10-05T17:02:09.770Z,100446.24
2018-10-05T17:04:38.430Z,100448.81
2018-10-05T17:07:07.205Z,100448.06
2018-10-05T17:09:36.158Z,100449.55
2018-10-05T17:12:04.850Z,100448.53
2018-10-05T17:14:33.422Z,100441.70
2018-10-05T17:17:02.066Z,100447.55
2018-10-05T17:19:30.842Z,100451.73
2018-10-05T17:21:59.443Z,100448.44
2018-10-05T17:24:28.067Z,100453.53
2018-10-05T17:26:56.725Z,100452.12
2018-10-05T17:29:25.327Z,100443.58
2018-10-05T17:31:53.949Z,100448.31
2018-10-05T17:34:22.557Z,100453.23
2018-10-05T17:36:51.501Z,100451.00
2018-10-05T17:39:20.173Z,100452.47
2018-10-05T17:41:48.857Z,100451.70
2018-10-05T17:44:17.533Z,100444.98
2018-10-05T17:46:46.147Z,100452.83
2018-10-05T17:49:14.778Z,100451.41
2018-10-05T17:51:43.322Z,100454.27
2018-10-05T17:54:11.896Z,100453.34
2018-10-05T17:56:40.461Z,100446.71
2018-10-05T17:59:09.078Z,100444.73
2018-10-05T18:01:37.813Z,100443.25
2018-10-05T18:04:06.554Z,100445.25
2018-10-05T18:06:36.855Z,100435.23
2018-10-05T18:09:06.838Z,100432.67
2018-10-05T18:11:35.465Z,100425.12
2018-10-05T18:14:04.127Z,100429.98
2018-10-05T18:16:32.895Z,100426.96
2018-10-05T18:19:01.460Z,100417.88
2018-10-05T18:21:30.172Z,100421.28
2018-10-05T18:23:58.792Z,100411.50
2018-10-05T18:26:27.410Z,100421.67
2018-10-05T18:28:56.021Z,100419.63
2018-10-05T18:31:24.977Z,100420.20
2018-10-05T18:33:53.560Z,100423.91
2018-10-05T18:36:22.279Z,100421.48
2018-10-05T18:38:51.184Z,100414.02
2018-10-05T18:41:19.919Z,100421.83
2018-10-05T18:43:48.708Z,100411.05
2018-10-05T18:46:17.563Z,100410.26
2018-10-05T18:48:46.199Z,100405.52
2018-10-05T18:51:14.921Z,100411.78
2018-10-05T18:53:43.682Z,100415.70
2018-10-05T18:56:23.610Z,100412.55
2018-10-05T18:58:52.223Z,100410.39
2018-10-05T19:01:20.946Z,100410.77
2018-10-05T19:03:49.639Z,100408.91
2018-10-05T19:06:18.595Z,100403.31
2018-10-05T19:08:47.278Z,100407.56
2018-10-05T19:11:15.867Z,100404.50
2018-10-05T19:13:45.084Z,100405.35
2018-10-05T19:16:13.883Z,100406.34
2018-10-05T19:18:42.801Z,100400.39
2018-10-05T19:21:11.744Z,100396.28
2018-10-05T19:23:40.618Z,100396.80
2018-10-05T19:26:09.265Z,100389.27
2018-10-05T19:28:38.047Z,100387.52
2018-10-05T19:31:06.767Z,100385.29
2018-10-05T19:33:35.370Z,100385.14
2018-10-05T19:36:04.005Z,100386.40
2018-10-05T19:38:34.035Z,100386.59
2018-10-05T19:41:02.837Z,100385.77
2018-10-05T19:43:31.594Z,100379.19
2018-10-05T19:46:00.246Z,100383.52
2018-10-05T19:48:28.832Z,100384.66
2018-10-05T19:50:57.407Z,100382.63
2018-10-05T19:53:26.069Z,100380.04
2018-10-05T19:55:54.764Z,100377.17
2018-10-05T19:58:23.549Z,100369.35
2018-10-05T20:00:52.597Z,100366.89
2018-10-05T20:03:21.179Z,100366.08
2018-10-05T20:05:49.758Z,100364.02
2018-10-05T20:08:18.322Z,100369.07
2018-10-05T20:10:47.000Z,100364.97
2018-10-05T20:13:15.584Z,100369.50
2018-10-05T20:15:44.314Z,100365.17
2018-10-05T20:18:13.024Z,100367.86
2018-10-05T20:20:41.739Z,100363.31
2018-10-05T20:23:10.375Z,100361.34
2018-10-05T20:25:38.925Z,100356.11
2018-10-05T20:28:07.474Z,100359.40
2018-10-05T20:30:36.798Z,100351.09
2018-10-05T20:33:05.379Z,100347.80
2018-10-05T20:35:34.248Z,100350.06
2018-10-05T20:38:03.214Z,100354.94
2018-10-05T20:40:32.086Z,100349.78
2018-10-05T20:43:00.769Z,100346.70
2018-10-05T20:45:29.599Z,100348.00
2018-10-05T20:47:58.221Z,100346.16
2018-10-05T20:50:26.819Z,100349.22
2018-10-05T20:52:55.719Z,100347.88
2018-10-05T20:55:24.399Z,100353.13
2018-10-05T20:57:53.147Z,100349.32
2018-10-05T21:00:22.029Z,100347.66
2018-10-05T21:02:50.602Z,100345.78
2018-10-05T21:05:19.167Z,100343.94
2018-10-05T21:07:47.731Z,100351.55
2018-10-05T21:10:16.438Z,100349.51
2018-10-05T21:12:45.155Z,100347.73
2018-10-05T21:15:13.852Z,100339.70
2018-10-05T21:17:42.613Z,100344.56
2018-10-05T21:20:11.230Z,100338.70
2018-10-05T21:22:39.810Z,100339.73
2018-10-05T21:25:08.415Z,100339.44
2018-10-05T21:27:37.046Z,100335.42
2018-10-05T21:30:05.991Z,100326.66
2018-10-05T21:32:34.669Z,100328.08
2018-10-05T21:35:03.413Z,100326.44
2018-10-05T21:37:32.022Z,100330.76
2018-10-05T21:40:00.657Z,100324.39
2018-10-05T21:42:29.787Z,100317.47
2018-10-05T21:44:58.497Z,100316.88
2018-10-05T21:47:27.363Z,100323.36
2018-10-05T21:49:56.030Z,100320.56
2018-10-05T21:52:24.619Z,100318.00
2018-10-05T21:54:53.398Z,100308.63
2018-10-05T21:57:21.982Z,100303.58
2018-10-05T21:59:50.625Z,100298.92
2018-10-05T22:02:19.282Z,100302.30
2018-10-05T22:04:48.008Z,100295.80
2018-10-05T22:07:16.845Z,100293.31
2018-10-05T22:09:45.460Z,100290.44
2018-10-05T22:12:14.025Z,100286.80
2018-10-05T22:14:42.653Z,100281.56
2018-10-05T22:17:11.347Z,100288.55
2018-10-05T22:19:40.031Z,100284.47
2018-10-05T22:22:08.886Z,100283.36
2018-10-05T22:24:37.671Z,100276.77
2018-10-05T22:27:06.746Z,100274.20
2018-10-05T22:29:35.574Z,100279.20
2018-10-05T22:32:04.744Z,100276.91
2018-10-05T22:34:33.384Z,100272.77
2018-10-05T22:37:02.186Z,100262.34
2018-10-05T22:39:30.762Z,100266.36
2018-10-05T22:41:59.933Z,100260.53
2018-10-05T22:44:28.718Z,100262.93
2018-10-05T22:46:57.886Z,100254.50
2018-10-05T22:49:26.656Z,100248.41
2018-10-05T22:51:55.252Z,100247.27
2018-10-05T22:54:24.165Z,100241.62
2018-10-05T22:56:52.951Z,100245.83
2018-10-05T22:59:21.522Z,100247.89
2018-10-05T23:01:50.093Z,100243.06
2018-10-05T23:04:19.610Z,100244.29
2018-10-05T23:06:48.771Z,100238.44
2018-10-05T23:09:17.493Z,100236.17
2018-10-05T23:11:46.214Z,100236.95
2018-10-05T23:14:14.761Z,100236.34
2018-10-05T23:16:44.082Z,100232.37
2018-10-05T23:19:12.968Z,100226.26
2018-10-05T23:21:41.768Z,100238.08
2018-10-05T23:24:10.578Z,100230.22
2018-10-05T23:26:39.225Z,100228.16
2018-10-05T23:29:07.975Z,100225.66
2018-10-05T23:31:37.250Z,100220.73
2018-10-05T23:34:06.080Z,100217.70
2018-10-05T23:36:34.654Z,100223.75
2018-10-05T23:39:03.277Z,100220.66
2018-10-05T23:41:31.914Z,100214.77
2018-10-05T23:44:00.710Z,100216.98
2018-10-05T23:46:30.022Z,100218.81
2018-10-05T23:49:00.561Z,100218.56
2018-10-05T23:51:29.281Z,100223.47
2018-10-05T23:53:58.240Z,100214.70
2018-10-05T23:56:27.101Z,100216.06
2018-10-05T23:58:55.751Z,100214.95
